createdAt,value
2023-04-17T00:02:10.916Z,79.58
2023-04-17T00:04:41.209Z,79.42
2023-04-17T00:07:09.682Z,79.31
2023-04-17T00:09:37.151Z,78.84
2023-04-17T00:12:04.992Z,79.28
2023-04-17T00:14:32.335Z,79.05
2023-04-17T00:16:59.643Z,78.50
2023-04-17T00:19:27.450Z,79.37
2023-04-17T00:21:54.773Z,79.68
2023-04-17T00:24:21.999Z,79.27
2023-04-17T00:26:49.740Z,78.88
2023-04-17T00:29:17.122Z,81.05
2023-04-17T00:31:44.656Z,80.60
2023-04-17T00:34:12.311Z,80.04
2023-04-17T00:36:39.664Z,79.92
2023-04-17T00:39:07.041Z,79.90
2023-04-17T00:41:34.804Z,79.12
2023-04-17T00:44:02.239Z,79.55
2023-04-17T00:46:29.880Z,79.14
2023-04-17T00:48:57.615Z,78.92
2023-04-17T00:51:25.265Z,80.00
2023-04-17T00:53:52.843Z,79.25
2023-04-17T00:56:21.196Z,78.98
2023-04-17T00:58:49.283Z,79.45
2023-04-17T01:01:16.666Z,79.03
2023-04-17T01:03:44.817Z,78.83
2023-04-17T01:06:12.841Z,78.82
2023-04-17T01:08:44.063Z,79.07
2023-04-17T01:11:11.852Z,79.17
2023-04-17T01:13:49.439Z,78.70
2023-04-17T01:16:18.549Z,79.67
2023-04-17T01:18:48.479Z,79.20
2023-04-17T01:21:16.953Z,79.68
2023-04-17T01:23:46.563Z,80.50
2023-04-17T01:26:18.361Z,80.07
2023-04-17T01:28:57.686Z,79.46
2023-04-17T01:31:25.384Z,79.95
2023-04-17T01:33:53.365Z,82.04
2023-04-17T01:36:20.890Z,82.61
2023-04-17T01:38:48.213Z,83.94
2023-04-17T01:41:15.901Z,82.78
2023-04-17T01:43:45.136Z,82.31
2023-04-17T01:46:12.595Z,81.80
2023-04-17T01:48:40.830Z,82.83
2023-04-17T01:51:08.976Z,82.07
2023-04-17T01:53:36.830Z,81.49
2023-04-17T01:56:04.812Z,83.18
2023-04-17T01:58:32.288Z,83.88
2023-04-17T02:00:59.878Z,84.63
2023-04-17T02:03:28.060Z,85.28
2023-04-17T02:05:55.790Z,86.14
2023-04-17T02:08:23.324Z,85.44
2023-04-17T02:10:51.141Z,85.70
2023-04-17T02:13:18.453Z,85.37
2023-04-17T02:15:46.021Z,84.79
2023-04-17T02:18:14.491Z,84.54
2023-04-17T02:20:42.254Z,83.71
2023-04-17T02:23:09.734Z,83.46
2023-04-17T02:25:37.048Z,83.61
2023-04-17T02:28:05.336Z,85.39
2023-04-17T02:30:34.466Z,84.96
2023-04-17T02:33:02.142Z,85.77
2023-04-17T02:35:32.542Z,85.67
2023-04-17T02:38:00.111Z,86.43
2023-04-17T02:40:27.689Z,85.88
2023-04-17T02:43:04.021Z,86.20
2023-04-17T02:45:31.497Z,85.93
2023-04-17T02:48:01.376Z,86.48
2023-04-17T02:50:29.149Z,87.66
2023-04-17T02:52:57.534Z,87.04
2023-04-17T02:55:25.325Z,87.24
2023-04-17T02:57:53.168Z,87.78
2023-04-17T03:00:20.989Z,87.37
2023-04-17T03:02:49.185Z,87.62
2023-04-17T03:05:16.765Z,87.72
2023-04-17T03:07:44.091Z,87.78
2023-04-17T03:10:13.625Z,87.53
2023-04-17T03:12:40.986Z,87.36
2023-04-17T03:15:09.213Z,86.78
2023-04-17T03:17:36.971Z,86.29
2023-04-17T03:20:05.381Z,86.37
2023-04-17T03:22:32.707Z,86.31
2023-04-17T03:25:00.681Z,86.22
2023-04-17T03:27:32.013Z,84.91
2023-04-17T03:29:59.757Z,84.43
2023-04-17T03:32:27.837Z,84.04
2023-04-17T03:34:55.298Z,83.89
2023-04-17T03:37:23.286Z,82.79
2023-04-17T03:39:51.629Z,83.73
2023-04-17T03:42:25.778Z,83.09
2023-04-17T03:44:53.971Z,82.28
2023-04-17T03:47:21.505Z,82.10
2023-04-17T03:49:48.912Z,81.86
2023-04-17T03:52:16.976Z,81.60
2023-04-17T03:54:44.566Z,81.75
2023-04-17T03:57:12.586Z,82.23
2023-04-17T03:59:40.459Z,81.57
2023-04-17T04:02:10.570Z,82.12
2023-04-17T04:04:38.290Z,82.10
2023-04-17T04:07:06.177Z,81.71
2023-04-17T04:09:34.163Z,81.32
2023-04-17T04:12:22.219Z,81.14
2023-04-17T04:14:50.318Z,81.24
2023-04-17T04:17:27.443Z,81.32
2023-04-17T04:19:59.976Z,81.35
2023-04-17T04:22:39.455Z,81.07
2023-04-17T04:25:13.018Z,81.05
2023-04-17T04:27:51.144Z,80.76
2023-04-17T04:30:31.601Z,80.52
2023-04-17T04:33:06.403Z,80.06
2023-04-17T04:35:34.600Z,81.17
2023-04-17T04:38:03.411Z,80.29
2023-04-17T04:40:37.662Z,80.30
2023-04-17T04:43:07.023Z,81.61
2023-04-17T04:45:47.728Z,81.45
2023-04-17T04:48:18.063Z,81.91
2023-04-17T04:50:54.846Z,81.95
2023-04-17T04:53:40.398Z,82.05
2023-04-17T04:56:12.638Z,81.65
2023-04-17T04:58:53.447Z,81.49
2023-04-17T05:01:35.097Z,81.25
2023-04-17T05:04:07.505Z,82.00
2023-04-17T05:06:35.308Z,82.36
2023-04-17T05:09:11.998Z,84.08
2023-04-17T05:12:00.512Z,84.13
2023-04-17T05:14:35.272Z,84.31
2023-04-17T05:17:05.439Z,84.44
2023-04-17T05:19:37.374Z,85.26
2023-04-17T05:22:06.239Z,85.40
2023-04-17T05:24:50.134Z,85.76
2023-04-17T05:27:23.507Z,84.79
2023-04-17T05:29:51.251Z,86.14
2023-04-17T05:32:20.517Z,85.17
2023-04-17T05:34:49.202Z,86.60
2023-04-17T05:37:17.784Z,86.70
2023-04-17T05:39:45.137Z,87.63
2023-04-17T05:42:12.535Z,86.96
2023-04-17T05:44:40.591Z,88.75
2023-04-17T05:47:08.038Z,88.44
2023-04-17T05:49:37.021Z,87.54
2023-04-17T05:52:05.170Z,87.60
2023-04-17T05:54:48.505Z,87.79
2023-04-17T05:57:20.196Z,87.37
2023-04-17T05:59:53.024Z,87.53
2023-04-17T06:02:27.704Z,85.67
2023-04-17T06:04:59.127Z,85.71
2023-04-17T06:07:42.659Z,85.83
2023-04-17T06:10:12.134Z,86.64
2023-04-17T06:12:43.087Z,87.19
2023-04-17T06:15:19.673Z,86.36
2023-04-17T06:17:47.726Z,86.30
2023-04-17T06:20:20.327Z,86.23
2023-04-17T06:22:47.794Z,86.42
2023-04-17T06:25:34.358Z,87.22
2023-04-17T06:28:02.168Z,86.42
2023-04-17T06:30:29.855Z,85.27
2023-04-17T06:33:16.062Z,85.76
2023-04-17T06:35:45.336Z,85.93
2023-04-17T06:38:13.332Z,85.91
2023-04-17T06:40:46.146Z,85.42
2023-04-17T06:43:18.278Z,84.76
2023-04-17T06:45:54.289Z,83.80
2023-04-17T06:48:29.508Z,84.51
2023-04-17T06:51:00.440Z,84.63
2023-04-17T06:53:30.934Z,83.69
2023-04-17T06:56:11.176Z,83.26
2023-04-17T06:58:44.659Z,82.98
2023-04-17T07:01:15.697Z,81.93
2023-04-17T07:03:46.576Z,82.44
2023-04-17T07:06:14.103Z,81.87
2023-04-17T07:08:43.586Z,82.17
2023-04-17T07:11:11.304Z,81.49
2023-04-17T07:13:38.814Z,82.04
2023-04-17T07:16:06.676Z,80.69
2023-04-17T07:18:34.672Z,80.14
2023-04-17T07:21:06.230Z,78.65
2023-04-17T07:23:40.619Z,78.09
2023-04-17T07:26:38.697Z,79.92
2023-04-17T07:28:57.107Z,79.63
2023-04-17T07:31:26.652Z,80.56
2023-04-17T07:34:00.985Z,81.15
2023-04-17T07:36:32.377Z,81.00
2023-04-17T07:39:10.757Z,80.56
2023-04-17T07:41:40.326Z,80.73
2023-04-17T07:44:09.415Z,80.77
2023-04-17T07:46:42.650Z,80.02
2023-04-17T07:49:13.340Z,80.87
2023-04-17T07:51:49.046Z,80.53
2023-04-17T07:54:22.945Z,79.83
2023-04-17T07:56:50.863Z,79.49
2023-04-17T07:59:24.991Z,79.52
2023-04-17T08:02:03.485Z,81.53
2023-04-17T08:04:33.988Z,81.00
2023-04-17T08:07:07.010Z,83.28
2023-04-17T08:09:51.183Z,84.72
2023-04-17T08:12:23.261Z,85.27
2023-04-17T08:14:53.685Z,86.00
2023-04-17T08:17:34.755Z,86.90
2023-04-17T08:20:11.819Z,87.06
2023-04-17T08:22:41.968Z,86.55
2023-04-17T08:25:18.727Z,87.63
2023-04-17T08:27:49.673Z,88.55
2023-04-17T08:30:33.482Z,88.90
2023-04-17T08:33:02.972Z,89.22
2023-04-17T08:35:30.958Z,89.65
2023-04-17T08:38:01.118Z,85.65
2023-04-17T08:40:28.910Z,86.73
2023-04-17T08:42:56.613Z,84.23
2023-04-17T08:45:24.891Z,79.49
2023-04-17T08:47:52.307Z,79.07
2023-04-17T08:50:22.272Z,74.64
2023-04-17T08:52:51.516Z,72.38
2023-04-17T08:55:20.018Z,73.43
2023-04-17T08:57:55.966Z,72.44
2023-04-17T09:00:28.446Z,71.78
2023-04-17T09:02:59.041Z,74.72
2023-04-17T09:05:30.610Z,77.58
2023-04-17T09:08:13.466Z,78.08
2023-04-17T09:10:45.890Z,79.02
2023-04-17T09:13:15.907Z,80.17
2023-04-17T09:15:44.990Z,82.44
2023-04-17T09:18:25.447Z,82.55
2023-04-17T09:20:53.272Z,82.12
2023-04-17T09:23:23.004Z,82.07
2023-04-17T09:26:16.670Z,83.59
2023-04-17T09:29:14.247Z,81.68
2023-04-17T09:32:14.800Z,79.25
2023-04-17T09:34:47.652Z,77.81
2023-04-17T09:37:17.324Z,73.30
2023-04-17T09:40:02.485Z,72.04
2023-04-17T09:42:36.541Z,72.16
2023-04-17T09:45:21.196Z,73.74
2023-04-17T09:47:49.547Z,71.82
2023-04-17T09:50:28.730Z,69.71
2023-04-17T09:52:56.900Z,70.65
2023-04-17T09:55:39.898Z,69.04
2023-04-17T09:58:12.731Z,69.57
2023-04-17T10:00:42.071Z,70.08
2023-04-17T10:03:12.401Z,69.80
2023-04-17T10:05:40.072Z,69.32
2023-04-17T10:08:25.151Z,70.81
2023-04-17T10:11:02.146Z,70.02
2023-04-17T10:13:41.184Z,69.74
2023-04-17T10:16:21.373Z,69.09
2023-04-17T10:19:34.016Z,69.29
2023-04-17T10:22:20.140Z,66.93
2023-04-17T10:24:52.220Z,67.19
2023-04-17T10:27:29.664Z,65.05
2023-04-17T10:30:02.893Z,63.60
2023-04-17T10:32:32.823Z,64.47
2023-04-17T10:35:19.681Z,64.93
2023-04-17T10:37:53.779Z,65.68
2023-04-17T10:40:25.035Z,65.60
2023-04-17T10:43:02.421Z,65.70
2023-04-17T10:45:56.805Z,65.11
2023-04-17T10:48:38.809Z,63.96
2023-04-17T10:51:27.190Z,63.42
2023-04-17T10:53:59.535Z,63.82
2023-04-17T10:59:15.237Z,65.63
2023-04-17T11:01:52.892Z,67.38
2023-04-17T11:04:35.757Z,67.29
2023-04-17T11:07:04.112Z,67.32
2023-04-17T11:09:32.089Z,66.48
2023-04-17T11:12:05.934Z,66.14
2023-04-17T11:14:41.130Z,65.29
2023-04-17T11:17:15.811Z,64.93
2023-04-17T11:19:45.256Z,65.23
2023-04-17T11:22:19.375Z,64.91
2023-04-17T11:24:56.320Z,64.48
2023-04-17T11:27:23.805Z,64.22
2023-04-17T11:29:58.014Z,63.09
2023-04-17T11:32:39.638Z,64.68
2023-04-17T11:35:11.951Z,64.20
2023-04-17T11:38:05.812Z,64.23
2023-04-17T11:40:34.819Z,64.52
2023-04-17T11:43:08.780Z,64.53
2023-04-17T11:45:37.425Z,63.86
2023-04-17T11:48:05.200Z,63.84
2023-04-17T11:50:33.358Z,64.43
2023-04-17T11:53:03.632Z,64.38
2023-04-17T11:55:31.975Z,63.01
2023-04-17T11:58:19.933Z,64.36
2023-04-17T12:01:05.729Z,63.25
2023-04-17T12:03:58.488Z,63.67
2023-04-17T12:06:46.236Z,63.02
2023-04-17T12:09:26.840Z,63.06
2023-04-17T12:11:54.429Z,63.23
2023-04-17T12:14:26.416Z,63.74
2023-04-17T12:16:57.325Z,64.25
2023-04-17T12:19:27.051Z,64.26
2023-04-17T12:21:54.737Z,65.28
2023-04-17T12:24:25.366Z,65.57
2023-04-17T12:26:53.560Z,65.71
2023-04-17T12:29:29.566Z,65.91
2023-04-17T12:32:04.693Z,65.33
2023-04-17T12:34:32.051Z,66.27
2023-04-17T12:36:59.370Z,66.21
2023-04-17T12:39:27.137Z,65.92
2023-04-17T12:41:54.509Z,63.87
2023-04-17T12:44:21.835Z,63.49
2023-04-17T12:46:49.550Z,63.51
2023-04-17T12:49:16.955Z,63.68
2023-04-17T12:51:44.351Z,63.11
2023-04-17T12:54:12.352Z,62.13
2023-04-17T12:56:39.911Z,61.02
2023-04-17T12:59:07.307Z,60.90
2023-04-17T13:01:35.031Z,60.19
2023-04-17T13:04:02.786Z,60.32
2023-04-17T13:06:30.500Z,60.15
2023-04-17T13:08:59.196Z,61.05
2023-04-17T13:11:26.677Z,62.00
2023-04-17T13:13:53.982Z,61.81
2023-04-17T13:16:21.843Z,61.25
2023-04-17T13:18:49.314Z,61.04
2023-04-17T13:21:16.657Z,61.12
2023-04-17T13:23:44.400Z,61.46
2023-04-17T13:26:11.712Z,62.47
2023-04-17T13:28:40.012Z,61.84
2023-04-17T13:31:07.822Z,60.87
2023-04-17T13:33:35.250Z,59.98
2023-04-17T13:36:02.701Z,60.42
2023-04-17T13:38:30.633Z,60.54
2023-04-17T13:40:57.947Z,61.11
2023-04-17T13:43:25.359Z,61.79
2023-04-17T13:45:55.553Z,62.99
2023-04-17T13:48:23.087Z,63.25
2023-04-17T13:50:50.419Z,63.17
2023-04-17T13:53:18.105Z,63.68
2023-04-17T13:55:45.579Z,62.80
2023-04-17T13:58:12.909Z,62.56
2023-04-17T14:00:40.819Z,62.68
2023-04-17T14:03:08.683Z,62.82
2023-04-17T14:05:36.078Z,62.48
2023-04-17T14:08:03.430Z,61.79
2023-04-17T14:10:31.042Z,61.12
2023-04-17T14:12:58.365Z,60.24
2023-04-17T14:15:25.819Z,59.88
2023-04-17T14:17:54.030Z,60.23
2023-04-17T14:20:21.366Z,60.27
2023-04-17T14:22:48.742Z,60.57
2023-04-17T14:25:16.705Z,58.42
2023-04-17T14:27:44.624Z,57.22
2023-04-17T14:30:12.270Z,57.10
2023-04-17T14:32:40.090Z,55.33
2023-04-17T14:35:07.793Z,55.12
2023-04-17T14:37:35.153Z,55.92
2023-04-17T14:40:04.862Z,58.24
2023-04-17T14:42:38.089Z,59.20
2023-04-17T14:45:15.019Z,59.96
2023-04-17T14:47:44.192Z,59.67
2023-04-17T14:50:11.908Z,60.64
2023-04-17T14:52:39.533Z,61.10
2023-04-17T14:55:07.351Z,61.98
2023-04-17T14:57:34.871Z,62.75
2023-04-17T15:00:03.213Z,63.07
2023-04-17T15:02:38.476Z,64.49
2023-04-17T15:05:07.257Z,65.12
2023-04-17T15:07:35.526Z,64.84
2023-04-17T15:10:02.992Z,64.68
2023-04-17T15:12:30.840Z,65.21
2023-04-17T15:14:58.327Z,65.09
2023-04-17T15:17:25.716Z,66.22
2023-04-17T15:19:56.018Z,65.97
2023-04-17T15:22:23.860Z,66.56
2023-04-17T15:24:51.423Z,67.47
2023-04-17T15:27:20.277Z,67.63
2023-04-17T15:29:47.685Z,66.98
2023-04-17T15:32:15.280Z,66.64
2023-04-17T15:34:43.592Z,66.53
2023-04-17T15:37:12.088Z,66.38
2023-04-17T15:39:40.147Z,65.96
2023-04-17T15:42:09.684Z,66.80
2023-04-17T15:44:37.865Z,68.48
2023-04-17T15:47:06.107Z,69.13
2023-04-17T15:49:34.040Z,68.86
2023-04-17T15:52:01.394Z,69.32
2023-04-17T15:54:28.874Z,69.70
2023-04-17T15:56:57.149Z,69.76
2023-04-17T15:59:24.620Z,70.44
2023-04-17T16:01:53.425Z,70.78
2023-04-17T16:04:21.383Z,71.00
2023-04-17T16:06:48.978Z,71.59
2023-04-17T16:09:20.115Z,71.76
2023-04-17T16:11:48.676Z,71.92
2023-04-17T16:14:16.344Z,73.16
2023-04-17T16:16:43.779Z,74.20
2023-04-17T16:19:11.731Z,74.68
2023-04-17T16:21:39.345Z,75.93
2023-04-17T16:24:06.781Z,77.26
2023-04-17T16:26:34.520Z,78.24
2023-04-17T16:29:01.889Z,78.40
2023-04-17T16:31:29.264Z,78.44
2023-04-17T16:33:57.015Z,77.63
2023-04-17T16:36:25.013Z,78.40
2023-04-17T16:38:52.311Z,79.17
2023-04-17T16:41:20.707Z,79.33
2023-04-17T16:43:48.038Z,80.00
2023-04-17T16:46:23.788Z,81.03
2023-04-17T16:48:59.483Z,82.71
2023-04-17T16:51:27.187Z,82.87
2023-04-17T16:53:54.680Z,82.52
2023-04-17T16:56:22.456Z,83.77
2023-04-17T16:58:49.727Z,83.41
2023-04-17T17:01:17.173Z,84.58
2023-04-17T17:03:58.381Z,87.04
2023-04-17T17:06:30.810Z,86.50
2023-04-17T17:09:00.171Z,87.57
2023-04-17T17:11:27.700Z,87.00
2023-04-17T17:13:54.984Z,86.78
2023-04-17T17:16:28.897Z,85.97
2023-04-17T17:18:58.381Z,86.85
2023-04-17T17:21:33.939Z,86.51
2023-04-17T17:24:01.419Z,86.45
2023-04-17T17:26:58.064Z,87.39
2023-04-17T17:29:25.397Z,86.19
2023-04-17T17:31:53.027Z,86.13
2023-04-17T17:34:26.739Z,86.04
2023-04-17T17:36:55.087Z,86.01
2023-04-17T17:39:22.540Z,85.73
2023-04-17T17:41:50.035Z,84.99
2023-04-17T17:44:17.820Z,85.95
2023-04-17T17:46:45.175Z,85.49
2023-04-17T17:49:12.445Z,84.78
2023-04-17T17:51:40.186Z,85.17
2023-04-17T17:54:08.130Z,85.34
2023-04-17T17:56:35.573Z,86.37
2023-04-17T17:59:03.323Z,86.19
2023-04-17T18:01:31.165Z,86.30
2023-04-17T18:03:59.123Z,85.88
2023-04-17T18:06:26.885Z,86.63
2023-04-17T18:08:54.487Z,85.96
2023-04-17T18:11:23.211Z,85.70
2023-04-17T18:13:51.390Z,84.61
2023-04-17T18:16:18.791Z,84.15
2023-04-17T18:18:46.624Z,83.62
2023-04-17T18:21:14.042Z,83.35
2023-04-17T18:23:41.767Z,82.83
2023-04-17T18:26:10.066Z,84.10
2023-04-17T18:28:37.567Z,84.88
2023-04-17T18:31:05.099Z,83.82
2023-04-17T18:33:32.833Z,84.04
2023-04-17T18:36:00.434Z,83.03
2023-04-17T18:38:27.853Z,83.52
2023-04-17T18:40:57.580Z,82.96
2023-04-17T18:43:28.566Z,83.21
2023-04-17T18:45:56.747Z,83.49
2023-04-17T18:48:24.643Z,83.27
2023-04-17T18:50:52.275Z,83.34
2023-04-17T18:53:20.001Z,82.88
2023-04-17T18:55:47.455Z,82.97
2023-04-17T18:58:14.805Z,84.04
2023-04-17T19:00:42.587Z,84.60
2023-04-17T19:03:10.374Z,84.76
2023-04-17T19:05:38.017Z,84.92
2023-04-17T19:08:05.891Z,84.97
2023-04-17T19:10:33.288Z,84.60
2023-04-17T19:13:00.668Z,84.26
2023-04-17T19:15:28.343Z,83.88
2023-04-17T19:17:56.224Z,83.97
2023-04-17T19:20:23.845Z,83.04
2023-04-17T19:22:51.566Z,83.17
2023-04-17T19:25:18.991Z,82.58
2023-04-17T19:27:46.699Z,82.84
2023-04-17T19:30:14.499Z,82.46
2023-04-17T19:32:41.830Z,82.43
2023-04-17T19:35:09.846Z,82.56
2023-04-17T19:37:37.591Z,82.02
2023-04-17T19:40:14.286Z,81.67
2023-04-17T19:42:49.659Z,81.68
2023-04-17T19:45:17.566Z,82.29
2023-04-17T19:47:44.942Z,82.15
2023-04-17T19:50:12.894Z,81.49
2023-04-17T19:52:40.284Z,81.21
2023-04-17T19:55:09.389Z,81.21
2023-04-17T19:57:37.246Z,80.66
2023-04-17T20:00:06.236Z,80.11
2023-04-17T20:02:39.890Z,79.83
2023-04-17T20:05:08.657Z,80.17
2023-04-17T20:07:36.300Z,80.88
2023-04-17T20:10:03.941Z,81.06
2023-04-17T20:12:32.647Z,80.16
2023-04-17T20:15:00.020Z,79.86
2023-04-17T20:17:27.391Z,80.55
2023-04-17T20:19:55.180Z,81.57
2023-04-17T20:22:23.862Z,82.43
2023-04-17T20:24:51.220Z,82.24
2023-04-17T20:27:19.153Z,83.23
2023-04-17T20:29:46.519Z,83.40
2023-04-17T20:32:13.964Z,83.55
2023-04-17T20:34:41.747Z,82.35
2023-04-17T20:37:09.717Z,82.34
2023-04-17T20:39:37.088Z,83.40
2023-04-17T20:42:04.970Z,83.56
2023-04-17T20:44:32.903Z,86.08
2023-04-17T20:47:00.400Z,86.85
2023-04-17T20:49:28.252Z,84.69
2023-04-17T20:51:55.816Z,83.66
2023-04-17T20:54:23.467Z,84.56
2023-04-17T20:56:51.289Z,84.81
2023-04-17T20:59:18.713Z,85.42
2023-04-17T21:01:46.089Z,85.97
2023-04-17T21:04:14.076Z,85.62
2023-04-17T21:06:41.685Z,86.84
2023-04-17T21:09:09.644Z,86.33
2023-04-17T21:11:37.401Z,86.52
2023-04-17T21:14:04.665Z,86.76
2023-04-17T21:16:32.117Z,86.37
2023-04-17T21:18:59.856Z,86.08
2023-04-17T21:21:27.188Z,85.25
2023-04-17T21:23:54.423Z,84.95
2023-04-17T21:26:22.121Z,86.01
2023-04-17T21:28:49.393Z,86.51
2023-04-17T21:31:16.758Z,86.86
2023-04-17T21:33:44.437Z,86.58
2023-04-17T21:36:11.765Z,86.26
2023-04-17T21:38:39.414Z,86.20
2023-04-17T21:41:09.262Z,85.83
2023-04-17T21:43:36.574Z,86.37
2023-04-17T21:46:04.057Z,86.64
2023-04-17T21:48:31.753Z,85.52
2023-04-17T21:51:04.127Z,84.61
2023-04-17T21:53:34.644Z,85.43
2023-04-17T21:56:02.187Z,86.09
2023-04-17T21:58:29.858Z,85.68
2023-04-17T22:00:57.563Z,86.64
2023-04-17T22:03:25.356Z,86.00
2023-04-17T22:05:54.226Z,85.77
2023-04-17T22:08:21.541Z,86.70
2023-04-17T22:10:49.592Z,87.31
2023-04-17T22:13:16.915Z,87.47
2023-04-17T22:15:44.868Z,87.72
2023-04-17T22:18:12.414Z,86.98
2023-04-17T22:20:39.645Z,86.90
2023-04-17T22:23:08.169Z,86.67
2023-04-17T22:25:36.343Z,87.41
2023-04-17T22:28:03.680Z,87.51
2023-04-17T22:30:30.947Z,87.87
2023-04-17T22:32:58.971Z,88.39
2023-04-17T22:35:27.110Z,89.65
2023-04-17T22:37:54.391Z,88.65
2023-04-17T22:40:22.007Z,89.29
2023-04-17T22:42:50.834Z,91.14
2023-04-17T22:45:18.234Z,90.66
2023-04-17T22:47:45.924Z,89.76
2023-04-17T22:50:14.417Z,89.64
2023-04-17T22:52:41.779Z,90.10
2023-04-17T22:55:09.988Z,89.80
2023-04-17T22:57:37.290Z,88.55
2023-04-17T23:00:05.075Z,88.78
2023-04-17T23:02:32.803Z,92.01
2023-04-17T23:05:00.285Z,92.37
2023-04-17T23:07:27.931Z,92.73
2023-04-17T23:09:55.649Z,91.87
2023-04-17T23:12:22.920Z,91.34
2023-04-17T23:14:50.238Z,91.95
2023-04-17T23:17:18.136Z,91.55
2023-04-17T23:19:45.401Z,91.03
2023-04-17T23:22:12.714Z,93.30
2023-04-17T23:24:40.751Z,94.37
2023-04-17T23:27:08.052Z,94.68
2023-04-17T23:29:35.345Z,94.55
2023-04-17T23:32:04.638Z,94.08
2023-04-17T23:34:31.921Z,93.79
2023-04-17T23:36:59.258Z,93.77
2023-04-17T23:39:26.886Z,94.68
2023-04-17T23:41:54.997Z,94.87
2023-04-17T23:44:22.288Z,96.00
2023-04-17T23:46:50.005Z,95.98
2023-04-17T23:49:17.304Z,95.28
2023-04-17T23:51:45.015Z,96.19
2023-04-17T23:54:13.212Z,96.98
2023-04-17T23:56:43.388Z,97.59
2023-04-17T23:59:10.774Z,98.73
